Toronto, Iowa
Current Conditions -  °F | °C
As of 9:59 AM on Friday 24 Oct 2014 (Local Time) from KDVN Reporting Station
Moderate Fog Moderate Fog  
Wind Chill: 54°   Ceiling: 200
Heat Index: 54°   Visibility: 0.25mi
Dew Point: 52°   Wind: 9mph
Humidity: 93%   Direction: 180°S
Pressure: 30.06"   Gusts: NA
Location:  41.8735°N, 90.8033°W
Report Text: KDVN 241459Z AUTO 18008KT 1/4SM FG VV002 12/11 A3006 RMK AO2 T01220111 TSNO
Loading
Personal Weather Stations






























Interactive Weather Map
Tropical Storm Tracking
New forecast layout! Learn more

10-Day Weather Forecast

Advertisements
Track Severe Weather on mobile